createdAt,value
2023-03-15T00:03:45.832Z,0.00
2023-03-15T00:08:45.697Z,0.00
2023-03-15T00:13:45.643Z,0.00
2023-03-15T00:18:45.568Z,0.00
2023-03-15T00:23:45.513Z,0.00
2023-03-15T00:28:45.446Z,0.00
2023-03-15T00:33:45.392Z,0.00
2023-03-15T00:38:45.307Z,0.00
2023-03-15T00:43:45.255Z,0.00
2023-03-15T00:48:45.186Z,0.00
2023-03-15T00:53:45.124Z,0.00
2023-03-15T00:58:45.056Z,0.00
2023-03-15T01:03:45.000Z,0.00
2023-03-15T01:08:44.946Z,0.00
2023-03-15T01:13:44.867Z,0.00
2023-03-15T01:18:44.792Z,0.00
2023-03-15T01:23:44.736Z,0.00
2023-03-15T01:28:44.677Z,0.00
2023-03-15T01:33:44.605Z,0.00
2023-03-15T01:38:44.602Z,0.00
2023-03-15T01:43:44.479Z,0.00
2023-03-15T01:48:44.416Z,0.00
2023-03-15T01:53:44.334Z,0.00
2023-03-15T01:58:44.286Z,0.00
2023-03-15T02:03:44.204Z,0.00
2023-03-15T02:08:44.154Z,0.00
2023-03-15T02:13:44.072Z,0.00
2023-03-15T02:18:44.032Z,0.00
2023-03-15T02:23:43.952Z,0.00
2023-03-15T02:28:43.895Z,0.00
2023-03-15T02:33:43.808Z,0.00
2023-03-15T02:38:43.765Z,0.00
2023-03-15T02:43:43.694Z,0.00
2023-03-15T02:48:43.625Z,0.00
2023-03-15T02:53:43.579Z,0.00
2023-03-15T02:58:43.501Z,0.00
2023-03-15T03:03:43.433Z,0.00
2023-03-15T03:08:43.381Z,0.00
2023-03-15T03:13:43.404Z,0.00
2023-03-15T03:18:43.253Z,0.00
2023-03-15T03:23:43.177Z,0.00
2023-03-15T03:28:43.122Z,0.00
2023-03-15T03:33:43.048Z,0.00
2023-03-15T03:38:42.994Z,0.00
2023-03-15T03:43:42.919Z,0.00
2023-03-15T03:48:42.864Z,0.00
2023-03-15T03:53:42.792Z,0.00
2023-03-15T03:58:42.736Z,0.00
2023-03-15T04:03:42.668Z,0.00
2023-03-15T04:08:42.647Z,0.00
2023-03-15T04:13:42.538Z,0.00
2023-03-15T04:18:42.483Z,0.00
2023-03-15T04:23:42.421Z,0.00
2023-03-15T04:28:42.352Z,0.00
2023-03-15T04:33:42.288Z,0.00
2023-03-15T04:38:42.230Z,0.00
2023-03-15T04:43:42.180Z,0.00
2023-03-15T04:48:42.103Z,0.00
2023-03-15T04:53:42.039Z,0.00
2023-03-15T04:58:41.975Z,4.00
2023-03-15T05:03:41.902Z,12.00
2023-03-15T05:08:41.847Z,28.00
2023-03-15T05:13:41.776Z,48.00
2023-03-15T05:18:41.717Z,64.00
2023-03-15T05:23:41.650Z,92.00
2023-03-15T05:28:41.591Z,132.00
2023-03-15T05:33:41.522Z,248.00
2023-03-15T05:38:41.461Z,340.00
2023-03-15T05:43:41.396Z,400.00
2023-03-15T05:48:41.339Z,484.00
2023-03-15T05:53:41.284Z,708.00
2023-03-15T05:58:41.208Z,808.00
2023-03-15T06:03:41.277Z,568.00
2023-03-15T06:08:41.086Z,524.00
2023-03-15T06:13:41.016Z,700.00
2023-03-15T06:18:40.961Z,652.00
2023-03-15T06:23:40.883Z,604.00
2023-03-15T06:28:40.829Z,676.00
2023-03-15T06:33:40.766Z,820.00
2023-03-15T06:38:40.705Z,1252.00
2023-03-15T06:43:40.643Z,1576.00
2023-03-15T06:48:40.595Z,1272.00
2023-03-15T06:53:40.511Z,1208.00
2023-03-15T06:58:40.450Z,1300.00
2023-03-15T07:03:40.385Z,1332.00
2023-03-15T07:08:40.329Z,2264.00
2023-03-15T07:13:40.257Z,2740.00
2023-03-15T07:18:40.234Z,2552.00
2023-03-15T07:23:40.137Z,2768.00
2023-03-15T07:28:40.128Z,3012.00
2023-03-15T07:33:40.011Z,2404.00
2023-03-15T07:38:42.031Z,3192.00
2023-03-15T07:43:39.865Z,3536.00
2023-03-15T07:48:39.808Z,3184.00
2023-03-15T07:53:39.741Z,3236.00
2023-03-15T07:58:39.674Z,3500.00
2023-03-15T08:03:39.600Z,3324.00
2023-03-15T08:08:39.540Z,3572.00
2023-03-15T08:13:39.467Z,3816.00
2023-03-15T08:18:39.414Z,4048.00
2023-03-15T08:23:39.338Z,3724.00
2023-03-15T08:28:39.284Z,3252.00
2023-03-15T08:33:39.209Z,5148.00
2023-03-15T08:38:39.160Z,10532.00
2023-03-15T08:43:39.081Z,12532.00
2023-03-15T08:48:39.036Z,7064.00
2023-03-15T08:53:38.948Z,6968.00
2023-03-15T08:58:38.889Z,8516.00
2023-03-15T09:03:38.818Z,6732.00
2023-03-15T09:08:38.757Z,4896.00
2023-03-15T09:13:38.690Z,5940.00
2023-03-15T09:18:38.626Z,14612.00
2023-03-15T09:23:39.074Z,12020.00
2023-03-15T09:28:38.504Z,7960.00
2023-03-15T09:33:38.423Z,5960.00
2023-03-15T09:38:38.364Z,6580.00
2023-03-15T09:43:38.291Z,7340.00
2023-03-15T09:48:38.237Z,6996.00
2023-03-15T09:53:38.166Z,8864.00
2023-03-15T09:58:38.101Z,10192.00
2023-03-15T10:03:38.224Z,4876.00
2023-03-15T10:08:37.978Z,4788.00
2023-03-15T10:13:37.901Z,8592.00
2023-03-15T10:18:37.841Z,11424.00
2023-03-15T10:23:37.774Z,16376.00
2023-03-15T10:28:37.708Z,11984.00
2023-03-15T10:33:37.642Z,9728.00
2023-03-15T10:38:37.586Z,13128.00
2023-03-15T10:43:37.521Z,10084.00
2023-03-15T10:48:37.445Z,8648.00
2023-03-15T10:53:37.371Z,7044.00
2023-03-15T10:58:37.317Z,7704.00
2023-03-15T11:03:37.245Z,14872.00
2023-03-15T11:08:37.186Z,15268.00
2023-03-15T11:13:37.116Z,13580.00
2023-03-15T11:18:37.050Z,11388.00
2023-03-15T11:23:36.974Z,10972.00
2023-03-15T11:28:36.934Z,11268.00
2023-03-15T11:33:36.848Z,14744.00
2023-03-15T11:38:36.789Z,22432.00
2023-03-15T11:43:36.723Z,10752.00
2023-03-15T11:48:36.665Z,10136.00
2023-03-15T11:53:36.589Z,9744.00
2023-03-15T11:58:36.571Z,12888.00
2023-03-15T12:03:36.502Z,12728.00
2023-03-15T12:08:36.403Z,13860.00
2023-03-15T12:13:36.327Z,19424.00
2023-03-15T12:18:36.321Z,13204.00
2023-03-15T12:23:36.205Z,13560.00
2023-03-15T12:28:36.136Z,9112.00
2023-03-15T12:33:36.082Z,7556.00
2023-03-15T12:38:36.001Z,7160.00
2023-03-15T12:43:35.928Z,8276.00
2023-03-15T12:48:35.923Z,10476.00
2023-03-15T12:53:35.799Z,9016.00
2023-03-15T12:58:35.739Z,9912.00
2023-03-15T13:03:35.793Z,7800.00
2023-03-15T13:08:35.607Z,8016.00
2023-03-15T13:13:35.544Z,8720.00
2023-03-15T13:18:35.479Z,9916.00
2023-03-15T13:23:35.407Z,8624.00
2023-03-15T13:28:35.350Z,7692.00
2023-03-15T13:33:35.276Z,6312.00
2023-03-15T13:38:35.231Z,6264.00
2023-03-15T13:43:35.173Z,5468.00
2023-03-15T13:48:35.094Z,5576.00
2023-03-15T13:53:48.637Z,5200.00
2023-03-15T13:58:35.989Z,6028.00
2023-03-15T14:03:34.887Z,5720.00
2023-03-15T14:08:34.832Z,6792.00
2023-03-15T14:13:34.789Z,6748.00
2023-03-15T14:18:34.718Z,5712.00
2023-03-15T14:23:34.635Z,4260.00
2023-03-15T14:28:34.584Z,4128.00
2023-03-15T14:33:34.506Z,4704.00
2023-03-15T14:38:34.443Z,4780.00
2023-03-15T14:43:34.369Z,4744.00
2023-03-15T14:48:34.318Z,4592.00
2023-03-15T14:53:34.237Z,4640.00
2023-03-15T14:58:34.182Z,4780.00
2023-03-15T15:03:34.106Z,4312.00
2023-03-15T15:08:34.051Z,3208.00
2023-03-15T15:13:33.980Z,4664.00
2023-03-15T15:18:33.917Z,5364.00
2023-03-15T15:23:34.918Z,5196.00
2023-03-15T15:28:37.007Z,5092.00
2023-03-15T15:33:33.713Z,3664.00
2023-03-15T15:38:33.666Z,2464.00
2023-03-15T15:43:33.903Z,2168.00
2023-03-15T15:48:33.562Z,1796.00
2023-03-15T15:53:33.452Z,1368.00
2023-03-15T15:58:33.407Z,1708.00
2023-03-15T16:03:33.320Z,1880.00
2023-03-15T16:08:33.257Z,1924.00
2023-03-15T16:13:33.186Z,1952.00
2023-03-15T16:18:33.127Z,1820.00
2023-03-15T16:23:33.057Z,1640.00
2023-03-15T16:28:32.999Z,1792.00
2023-03-15T16:33:32.922Z,1656.00
2023-03-15T16:38:32.869Z,1500.00
2023-03-15T16:43:32.795Z,1252.00
2023-03-15T16:48:32.733Z,1080.00
2023-03-15T16:53:32.663Z,848.00
2023-03-15T16:58:32.602Z,584.00
2023-03-15T17:03:32.529Z,424.00
2023-03-15T17:08:32.471Z,328.00
2023-03-15T17:13:32.399Z,224.00
2023-03-15T17:18:32.343Z,128.00
2023-03-15T17:23:32.265Z,68.00
2023-03-15T17:28:32.206Z,28.00
2023-03-15T17:33:32.133Z,12.00
2023-03-15T17:38:32.076Z,4.00
2023-03-15T17:43:32.003Z,0.00
2023-03-15T17:48:31.942Z,0.00
2023-03-15T17:53:31.869Z,0.00
2023-03-15T17:58:31.822Z,0.00
2023-03-15T18:03:31.744Z,0.00
2023-03-15T18:08:31.691Z,0.00
2023-03-15T18:13:31.612Z,0.00
2023-03-15T18:18:31.558Z,0.00
2023-03-15T18:23:31.481Z,0.00
2023-03-15T18:28:31.428Z,0.00
2023-03-15T18:33:31.347Z,0.00
2023-03-15T18:38:31.319Z,0.00
2023-03-15T18:43:31.212Z,0.00
2023-03-15T18:48:40.599Z,0.00
2023-03-15T18:53:31.082Z,0.00
2023-03-15T18:58:31.157Z,0.00
2023-03-15T19:03:30.952Z,0.00
2023-03-15T19:08:30.936Z,0.00
2023-03-15T19:13:30.912Z,0.00
2023-03-15T19:18:30.825Z,0.00
2023-03-15T19:23:30.712Z,0.00
2023-03-15T19:28:30.646Z,0.00
2023-03-15T19:33:30.591Z,0.00
2023-03-15T19:38:30.523Z,0.00
2023-03-15T19:43:30.449Z,0.00
2023-03-15T19:48:30.403Z,0.00
2023-03-15T19:53:30.337Z,0.00
2023-03-15T19:58:30.270Z,0.00
2023-03-15T20:03:30.200Z,0.00
2023-03-15T20:08:30.147Z,0.00
2023-03-15T20:13:30.082Z,0.00
2023-03-15T20:18:30.145Z,0.00
2023-03-15T20:23:29.951Z,0.00
2023-03-15T20:28:29.895Z,0.00
2023-03-15T20:33:29.837Z,0.00
2023-03-15T20:38:29.773Z,0.00
2023-03-15T20:43:29.700Z,0.00
2023-03-15T20:48:29.648Z,0.00
2023-03-15T20:53:29.573Z,0.00
2023-03-15T20:58:29.520Z,0.00
2023-03-15T21:03:29.536Z,0.00
2023-03-15T21:08:29.388Z,0.00
2023-03-15T21:13:29.320Z,0.00
2023-03-15T21:18:29.306Z,0.00
2023-03-15T21:23:29.180Z,0.00
2023-03-15T21:28:29.127Z,0.00
2023-03-15T21:33:29.050Z,0.00
2023-03-15T21:38:29.006Z,0.00
2023-03-15T21:43:28.924Z,0.00
2023-03-15T21:48:28.857Z,0.00
2023-03-15T21:53:28.786Z,0.00
2023-03-15T21:58:28.728Z,0.00
2023-03-15T22:03:28.665Z,0.00
2023-03-15T22:08:28.602Z,0.00
2023-03-15T22:13:28.533Z,0.00
2023-03-15T22:18:28.500Z,0.00
2023-03-15T22:23:28.410Z,0.00
2023-03-15T22:28:28.350Z,0.00
2023-03-15T22:33:28.278Z,0.00
2023-03-15T22:38:28.223Z,0.00
2023-03-15T22:43:28.159Z,0.00
2023-03-15T22:48:28.085Z,0.00
2023-03-15T22:53:28.030Z,0.00
2023-03-15T22:58:27.980Z,0.00
2023-03-15T23:03:27.907Z,0.00
2023-03-15T23:08:27.858Z,0.00
2023-03-15T23:13:27.816Z,0.00
2023-03-15T23:18:27.713Z,0.00
2023-03-15T23:23:27.655Z,0.00
2023-03-15T23:28:27.580Z,0.00
2023-03-15T23:33:27.529Z,0.00
2023-03-15T23:38:27.464Z,0.00
2023-03-15T23:43:27.411Z,0.00
2023-03-15T23:48:27.389Z,0.00
2023-03-15T23:53:27.286Z,0.00
2023-03-15T23:58:27.214Z,0.00
